createdAt,value
2016-12-20T00:00:12.404Z,22.75
2016-12-20T00:01:15.857Z,22.73
2016-12-20T00:02:19.312Z,22.72
2016-12-20T00:03:22.766Z,22.75
2016-12-20T00:04:26.225Z,22.69
2016-12-20T00:05:29.674Z,22.65
2016-12-20T00:06:33.127Z,22.7
2016-12-20T00:07:36.582Z,22.75
2016-12-20T00:08:40.036Z,22.69
2016-12-20T00:09:43.489Z,22.73
2016-12-20T00:10:46.947Z,22.65
2016-12-20T00:11:50.398Z,22.7
2016-12-20T00:12:53.853Z,22.75
2016-12-20T00:13:57.305Z,22.69
2016-12-20T00:15:00.760Z,22.68
2016-12-20T00:16:04.206Z,22.65
2016-12-20T00:17:07.655Z,22.73
2016-12-20T00:18:11.098Z,22.72
2016-12-20T00:19:14.553Z,22.65
2016-12-20T00:20:17.996Z,22.68
2016-12-20T00:21:21.454Z,22.73
2016-12-20T00:22:24.913Z,22.73
2016-12-20T00:23:28.358Z,22.65
2016-12-20T00:24:31.810Z,22.68
2016-12-20T00:25:35.268Z,22.65
2016-12-20T00:26:38.719Z,22.65
2016-12-20T00:27:42.172Z,22.65
2016-12-20T00:28:45.629Z,22.65
2016-12-20T00:29:49.080Z,22.65
2016-12-20T00:30:52.533Z,22.65
2016-12-20T00:31:55.989Z,22.65
2016-12-20T00:32:59.443Z,22.69
2016-12-20T00:34:02.894Z,22.69
2016-12-20T00:35:06.351Z,22.72
2016-12-20T00:36:09.803Z,22.66
2016-12-20T00:37:13.251Z,22.59
2016-12-20T00:38:16.701Z,22.7
2016-12-20T00:39:20.141Z,22.69
2016-12-20T00:40:23.596Z,22.62
2016-12-20T00:41:27.040Z,22.62
2016-12-20T00:42:30.492Z,22.59
2016-12-20T00:43:33.947Z,22.65
2016-12-20T00:44:37.401Z,22.63
2016-12-20T00:45:40.854Z,22.7
2016-12-20T00:46:44.308Z,22.62
2016-12-20T01:03:51.603Z,22.65
2016-12-20T01:04:55.042Z,22.62
2016-12-20T01:05:58.499Z,22.65
2016-12-20T01:07:01.961Z,22.63
2016-12-20T01:08:05.403Z,22.51
2016-12-20T01:09:08.854Z,22.62
2016-12-20T01:10:12.310Z,22.59
2016-12-20T01:11:15.764Z,22.62
2016-12-20T01:12:19.211Z,22.59
2016-12-20T01:13:22.649Z,22.57
2016-12-20T01:14:26.117Z,22.57
2016-12-20T01:15:29.562Z,22.53
2016-12-20T01:16:33.009Z,22.53
2016-12-20T01:17:36.459Z,22.53
2016-12-20T01:18:39.919Z,22.55
2016-12-20T01:19:43.361Z,22.59
2016-12-20T01:20:46.814Z,22.59
2016-12-20T01:21:50.277Z,22.54
2016-12-20T01:22:53.722Z,22.55
2016-12-20T01:23:57.177Z,22.43
2016-12-20T01:25:00.630Z,22.59
2016-12-20T01:26:04.085Z,22.57
2016-12-20T01:27:07.538Z,22.54
2016-12-20T01:28:10.995Z,22.54
2016-12-20T01:29:14.447Z,22.55
2016-12-20T01:30:17.893Z,22.51
2016-12-20T01:31:21.342Z,22.55
2016-12-20T01:32:24.786Z,22.5
2016-12-20T01:33:28.244Z,22.48
2016-12-20T01:34:31.688Z,22.5
2016-12-20T01:35:35.141Z,22.5
2016-12-20T01:36:38.601Z,22.47
2016-12-20T01:37:42.045Z,22.54
2016-12-20T01:38:45.498Z,22.47
2016-12-20T01:39:48.951Z,22.47
2016-12-20T01:40:52.405Z,22.51
2016-12-20T01:41:55.860Z,22.43
2016-12-20T01:42:59.315Z,22.51
2016-12-20T01:44:02.767Z,22.44
2016-12-20T01:45:06.221Z,22.5
2016-12-20T01:46:09.675Z,22.51
2016-12-20T01:47:13.129Z,22.5
2016-12-20T01:48:16.583Z,22.54
2016-12-20T01:49:20.036Z,22.51
2016-12-20T01:50:23.491Z,22.47
2016-12-20T01:51:26.943Z,22.48
2016-12-20T01:52:30.400Z,22.5
2016-12-20T01:53:33.852Z,22.48
2016-12-20T01:54:37.306Z,22.5
2016-12-20T01:55:40.760Z,22.43
2016-12-20T01:56:44.214Z,22.5
2016-12-20T01:57:47.669Z,22.5
2016-12-20T01:58:51.123Z,22.5
2016-12-20T01:59:54.580Z,22.48
2016-12-20T02:00:58.030Z,22.48
2016-12-20T02:02:01.486Z,22.44
2016-12-20T02:03:04.938Z,22.45
2016-12-20T02:04:08.386Z,22.53
2016-12-20T02:05:11.835Z,22.44
2016-12-20T02:06:15.272Z,22.44
2016-12-20T02:07:18.731Z,22.41
2016-12-20T02:08:22.174Z,22.51
2016-12-20T02:09:25.627Z,22.45
2016-12-20T02:10:29.082Z,22.39
2016-12-20T02:11:32.536Z,22.41
2016-12-20T02:12:35.987Z,22.38
2016-12-20T02:13:39.444Z,22.43
2016-12-20T02:14:42.897Z,22.35
2016-12-20T02:15:46.351Z,22.43
2016-12-20T02:16:49.804Z,22.38
2016-12-20T02:17:53.259Z,22.39
2016-12-20T02:18:56.716Z,22.41
2016-12-20T02:20:00.167Z,22.39
2016-12-20T02:21:03.621Z,22.33
2016-12-20T02:22:07.074Z,22.41
2016-12-20T02:23:10.529Z,22.43
2016-12-20T02:24:13.985Z,22.44
2016-12-20T02:25:17.430Z,22.32
2016-12-20T02:26:20.878Z,22.39
2016-12-20T02:27:24.321Z,22.44
2016-12-20T02:28:27.774Z,22.44
2016-12-20T02:29:31.219Z,22.38
2016-12-20T02:30:34.670Z,22.38
2016-12-20T02:31:38.127Z,22.36
2016-12-20T02:32:41.580Z,22.39
2016-12-20T02:33:45.034Z,22.41
2016-12-20T02:34:48.488Z,22.35
2016-12-20T02:35:51.942Z,22.36
2016-12-20T02:36:55.389Z,22.39
2016-12-20T02:37:58.836Z,22.35
2016-12-20T02:39:02.280Z,22.36
2016-12-20T02:40:05.731Z,22.36
2016-12-20T02:41:09.177Z,22.36
2016-12-20T02:42:12.622Z,22.38
2016-12-20T02:43:16.072Z,22.39
2016-12-20T02:44:19.517Z,22.29
2016-12-20T02:45:22.969Z,22.33
2016-12-20T02:46:26.413Z,22.3
2016-12-20T02:47:29.866Z,22.35
2016-12-20T02:48:33.320Z,22.41
2016-12-20T02:49:36.774Z,22.38
2016-12-20T02:50:40.222Z,22.36
2016-12-20T02:51:43.669Z,22.3
2016-12-20T02:52:47.110Z,22.36
2016-12-20T02:53:50.565Z,22.35
2016-12-20T02:54:54.010Z,22.35
2016-12-20T02:55:57.457Z,22.36
2016-12-20T02:57:00.905Z,22.38
2016-12-20T02:58:04.347Z,22.41
2016-12-20T02:59:07.798Z,22.41
2016-12-20T03:00:11.245Z,22.32
2016-12-20T03:01:14.699Z,22.29
2016-12-20T03:02:18.153Z,22.41
2016-12-20T03:03:21.607Z,22.38
2016-12-20T03:04:25.060Z,22.39
2016-12-20T03:05:28.520Z,22.32
2016-12-20T03:06:31.969Z,22.32
2016-12-20T03:07:35.422Z,22.35
2016-12-20T03:08:38.877Z,22.38
2016-12-20T03:09:42.330Z,22.39
2016-12-20T03:10:45.778Z,22.35
2016-12-20T03:11:49.226Z,22.32
2016-12-20T03:12:52.670Z,22.36
2016-12-20T03:13:56.121Z,22.38
2016-12-20T03:14:59.566Z,22.35
2016-12-20T03:16:03.013Z,22.32
2016-12-20T03:17:06.467Z,22.41
2016-12-20T03:18:09.928Z,22.3
2016-12-20T03:19:13.374Z,22.28
2016-12-20T03:20:16.823Z,22.29
2016-12-20T03:21:20.265Z,22.25
2016-12-20T03:22:23.720Z,22.28
2016-12-20T03:23:27.165Z,22.35
2016-12-20T03:24:30.616Z,22.35
2016-12-20T03:25:34.075Z,22.29
2016-12-20T03:26:37.525Z,22.32
2016-12-20T03:27:40.977Z,22.26
2016-12-20T03:28:44.433Z,22.3
2016-12-20T03:29:47.886Z,22.29
2016-12-20T03:30:51.334Z,22.3
2016-12-20T03:31:54.781Z,22.26
2016-12-20T03:32:58.220Z,22.26
2016-12-20T03:34:01.676Z,22.25
2016-12-20T03:35:05.122Z,22.32
2016-12-20T03:36:08.576Z,22.29
2016-12-20T03:37:12.029Z,22.23
2016-12-20T03:38:15.483Z,22.25
2016-12-20T03:39:18.936Z,22.3
2016-12-20T03:40:22.389Z,22.28
2016-12-20T03:41:25.846Z,22.14
2016-12-20T03:42:29.299Z,22.3
2016-12-20T03:43:32.753Z,22.28
2016-12-20T03:44:36.207Z,22.26
2016-12-20T03:45:39.660Z,22.26
2016-12-20T03:46:43.118Z,22.26
2016-12-20T03:47:46.568Z,22.28
2016-12-20T03:48:50.022Z,22.25
2016-12-20T03:49:53.476Z,22.23
2016-12-20T03:50:56.930Z,22.25
2016-12-20T03:52:00.383Z,22.29
2016-12-20T03:53:03.843Z,22.26
2016-12-20T03:54:07.293Z,22.22
2016-12-20T03:55:10.738Z,22.14
2016-12-20T03:56:14.187Z,22.2
2016-12-20T03:57:17.632Z,22.28
2016-12-20T03:58:21.087Z,22.25
2016-12-20T03:59:24.529Z,22.13
2016-12-20T04:00:27.986Z,22.23
2016-12-20T04:01:31.445Z,22.22
2016-12-20T04:02:34.890Z,22.29
2016-12-20T04:03:38.349Z,22.33
2016-12-20T04:04:41.805Z,22.15
2016-12-20T04:05:45.251Z,22.26
2016-12-20T04:06:48.704Z,22.13
2016-12-20T04:07:52.163Z,22.33
2016-12-20T04:08:55.616Z,22.2
2016-12-20T04:09:59.060Z,22.17
2016-12-20T04:11:02.510Z,22.29
2016-12-20T04:12:05.952Z,22.25
2016-12-20T04:13:09.409Z,22.2
2016-12-20T04:14:12.856Z,22.18
2016-12-20T04:15:16.306Z,22.29
2016-12-20T04:16:19.765Z,22.25
2016-12-20T04:17:23.210Z,22.25
2016-12-20T04:18:26.662Z,22.23
2016-12-20T04:19:30.117Z,22.15
2016-12-20T04:20:33.571Z,22.23
2016-12-20T04:21:37.012Z,22.25
2016-12-20T04:22:40.465Z,22.18
2016-12-20T04:23:43.909Z,22.15
2016-12-20T04:24:47.366Z,22.18
2016-12-20T04:25:50.806Z,22.26
2016-12-20T04:26:54.259Z,22.2
2016-12-20T04:27:57.714Z,22.25
2016-12-20T04:29:01.167Z,22.2
2016-12-20T04:30:04.621Z,22.14
2016-12-20T04:31:08.076Z,22.2
2016-12-20T04:32:11.529Z,22.23
2016-12-20T04:33:14.976Z,22.22
2016-12-20T04:34:18.425Z,22.25
2016-12-20T04:35:21.874Z,22.17
2016-12-20T04:36:25.326Z,22.18
2016-12-20T04:37:28.772Z,22.26
2016-12-20T04:38:32.225Z,22.2
2016-12-20T04:39:35.684Z,22.28
2016-12-20T04:40:39.128Z,22.2
2016-12-20T04:41:42.584Z,22.14
2016-12-20T04:42:46.044Z,22.14
2016-12-20T04:43:49.490Z,22.22
2016-12-20T04:44:52.941Z,22.15
2016-12-20T04:45:56.396Z,22.22
2016-12-20T04:46:59.849Z,22.22
2016-12-20T04:48:03.302Z,22.11
2016-12-20T04:49:06.756Z,22.18
2016-12-20T04:50:10.211Z,22.15
2016-12-20T04:51:13.664Z,22.22
2016-12-20T04:52:17.119Z,22.15
2016-12-20T04:53:20.573Z,22.13
2016-12-20T04:54:24.026Z,22.13
2016-12-20T04:55:27.477Z,22.22
2016-12-20T04:56:30.934Z,22.25
2016-12-20T04:57:34.387Z,22.11
2016-12-20T04:58:37.845Z,22.2
2016-12-20T04:59:41.296Z,22.14
2016-12-20T05:00:44.749Z,22.15
2016-12-20T05:01:48.204Z,22.11
2016-12-20T05:02:51.658Z,22.14
2016-12-20T05:03:55.111Z,22.1
2016-12-20T05:04:58.570Z,22.11
2016-12-20T05:06:02.020Z,22.11
2016-12-20T05:07:05.473Z,22.11
2016-12-20T05:08:08.927Z,22.22
2016-12-20T05:09:12.381Z,22.13
2016-12-20T05:10:15.834Z,22.15
2016-12-20T05:11:19.289Z,22.22
2016-12-20T05:12:22.747Z,22.22
2016-12-20T05:13:26.196Z,22.18
2016-12-20T05:14:29.666Z,22.2
2016-12-20T05:15:33.113Z,22.15
2016-12-20T05:16:36.561Z,22.11
2016-12-20T05:17:40.024Z,22.18
2016-12-20T05:18:43.467Z,22.18
2016-12-20T05:19:46.925Z,22.18
2016-12-20T05:20:50.384Z,22.2
2016-12-20T05:21:53.830Z,22.15
2016-12-20T05:22:57.281Z,22.18
2016-12-20T05:24:00.739Z,22.11
2016-12-20T05:25:04.190Z,22.14
2016-12-20T05:26:07.653Z,22.11
2016-12-20T05:27:11.112Z,22.17
2016-12-20T05:28:14.551Z,22.18
2016-12-20T05:29:18.004Z,22.22
2016-12-20T05:30:21.477Z,22.1
2016-12-20T05:31:24.913Z,22.1
2016-12-20T05:32:28.357Z,22.18
2016-12-20T05:33:31.810Z,22.15
2016-12-20T05:34:35.250Z,22.2
2016-12-20T05:35:38.709Z,21.95
2016-12-20T05:36:42.148Z,21.35
2016-12-20T05:37:45.602Z,21.02
2016-12-20T05:38:49.057Z,21.06
2016-12-20T05:39:52.509Z,21.21
2016-12-20T05:40:55.962Z,21.33
2016-12-20T05:41:59.415Z,21.4
2016-12-20T05:43:02.872Z,21.55
2016-12-20T05:44:06.325Z,21.57
2016-12-20T05:45:09.781Z,21.72
2016-12-20T05:46:13.233Z,21.72
2016-12-20T05:47:16.686Z,21.7
2016-12-20T05:48:20.128Z,21.76
2016-12-20T05:49:23.574Z,21.77
2016-12-20T05:50:27.027Z,21.75
2016-12-20T05:51:30.473Z,21.76
2016-12-20T05:52:33.926Z,21.79
2016-12-20T05:53:37.384Z,21.83
2016-12-20T05:54:40.850Z,21.88
2016-12-20T05:55:44.298Z,21.91
2016-12-20T05:56:47.755Z,21.88
2016-12-20T05:57:51.200Z,21.99
2016-12-20T05:58:54.648Z,22.08
2016-12-20T05:59:58.127Z,21.96
2016-12-20T06:01:01.578Z,22.08
2016-12-20T06:02:05.024Z,22.07
2016-12-20T06:03:08.478Z,22.11
2016-12-20T06:04:11.931Z,22.11
2016-12-20T06:05:15.373Z,22.1
2016-12-20T06:06:18.836Z,22.07
2016-12-20T06:07:22.278Z,22.07
2016-12-20T06:08:25.740Z,22.07
2016-12-20T06:09:29.189Z,22.04
2016-12-20T06:11:00.121Z,22.1
2016-12-20T06:12:03.572Z,21.99
2016-12-20T06:13:07.024Z,22
2016-12-20T06:14:10.466Z,22.06
2016-12-20T06:15:13.913Z,22.04
2016-12-20T06:16:17.369Z,22.15
2016-12-20T06:17:20.806Z,22.18
2016-12-20T06:18:24.258Z,22.22
2016-12-20T06:19:54.593Z,22.18
2016-12-20T06:20:58.066Z,22.15
2016-12-20T06:22:01.527Z,22.18
2016-12-20T06:23:04.974Z,22.18
2016-12-20T06:24:08.428Z,22.17
2016-12-20T06:25:11.891Z,22.13
2016-12-20T06:26:15.335Z,22.28
2016-12-20T06:27:18.788Z,22.18
2016-12-20T06:28:22.245Z,22.29
2016-12-20T06:29:25.696Z,22.17
2016-12-20T06:30:29.159Z,22.25
2016-12-20T06:31:32.604Z,22.3
2016-12-20T06:32:36.057Z,22.32
2016-12-20T06:33:39.502Z,22.33
2016-12-20T06:34:42.948Z,22.39
2016-12-20T06:35:46.389Z,22.43
2016-12-20T06:36:49.852Z,22.43
2016-12-20T06:37:53.310Z,22.39
2016-12-20T06:38:56.750Z,22.44
2016-12-20T06:40:00.205Z,22.43
2016-12-20T06:41:03.654Z,22.47
2016-12-20T06:42:07.101Z,22.5
2016-12-20T06:43:10.557Z,22.47
2016-12-20T06:44:14.017Z,22.5
2016-12-20T06:45:17.481Z,22.43
2016-12-20T06:46:20.938Z,22.47
2016-12-20T06:47:51.993Z,22.45
2016-12-20T06:48:55.432Z,22.48
2016-12-20T06:49:58.904Z,22.51
2016-12-20T06:51:02.345Z,22.55
2016-12-20T06:52:05.797Z,22.55
2016-12-20T06:53:09.236Z,22.53
2016-12-20T06:54:12.691Z,22.55
2016-12-20T06:55:16.147Z,22.57
2016-12-20T06:56:19.593Z,22.54
2016-12-20T06:57:23.049Z,22.59
2016-12-20T06:58:26.496Z,22.6
2016-12-20T06:59:57.356Z,22.65
2016-12-20T07:01:00.813Z,22.55
2016-12-20T07:02:04.269Z,22.59
2016-12-20T07:03:07.709Z,22.65
2016-12-20T07:04:11.152Z,22.7
2016-12-20T07:05:14.604Z,22.65
2016-12-20T07:06:18.054Z,22.66
2016-12-20T07:07:21.509Z,22.65
2016-12-20T07:08:24.977Z,22.65
2016-12-20T07:09:55.283Z,22.66
2016-12-20T07:10:58.728Z,22.65
2016-12-20T07:12:02.182Z,22.65
2016-12-20T07:13:05.638Z,22.7
2016-12-20T07:14:09.080Z,22.83
2016-12-20T07:15:12.521Z,22.65
2016-12-20T07:16:15.976Z,22.73
2016-12-20T07:17:19.419Z,22.81
2016-12-20T07:18:22.908Z,22.91
2016-12-20T07:19:26.369Z,22.84
2016-12-20T07:20:29.827Z,22.87
2016-12-20T07:21:33.274Z,22.87
2016-12-20T07:22:36.718Z,22.9
2016-12-20T07:24:07.583Z,23.06
2016-12-20T07:25:11.031Z,22.98
2016-12-20T07:26:14.477Z,23.02
2016-12-20T07:27:17.936Z,23.02
2016-12-20T07:28:21.379Z,23.12
2016-12-20T07:29:24.829Z,23.09
2016-12-20T07:30:28.281Z,23.1
2016-12-20T07:31:32.304Z,23.05
2016-12-20T07:32:35.759Z,23.13
2016-12-20T07:33:39.211Z,23.15
2016-12-20T07:34:42.657Z,23.03
2016-12-20T07:35:46.101Z,23.12
2016-12-20T07:36:49.572Z,23.05
2016-12-20T07:38:20.455Z,23.12
2016-12-20T07:39:23.918Z,23.27
2016-12-20T07:40:27.369Z,23.2
2016-12-20T07:41:30.824Z,23.15
2016-12-20T07:42:34.274Z,23.18
2016-12-20T07:43:37.742Z,23.2
2016-12-20T07:46:09.734Z,23.17
2016-12-20T07:47:13.188Z,23.23
2016-12-20T07:48:16.642Z,23.23
2016-12-20T07:49:20.079Z,23.24
2016-12-20T07:50:23.551Z,23.32
2016-12-20T07:51:27.013Z,23.39
2016-12-20T07:52:30.468Z,23.34
2016-12-20T07:53:33.914Z,23.4
2016-12-20T07:54:37.374Z,23.4
2016-12-20T07:55:40.819Z,23.46
2016-12-20T07:56:44.279Z,23.51
2016-12-20T07:57:47.741Z,23.54
2016-12-20T07:59:17.821Z,23.5
2016-12-20T08:00:21.258Z,23.4
2016-12-20T08:01:24.723Z,23.41
2016-12-20T08:02:28.169Z,23.48
2016-12-20T08:04:00.003Z,23.47
2016-12-20T08:05:03.447Z,23.47
2016-12-20T08:06:06.925Z,23.54
2016-12-20T08:07:10.371Z,23.5
2016-12-20T08:08:13.826Z,23.46
2016-12-20T08:09:17.291Z,23.5
2016-12-20T08:10:20.741Z,23.51
2016-12-20T08:11:24.177Z,23.44
2016-12-20T08:12:27.641Z,23.47
2016-12-20T08:13:31.120Z,23.63
2016-12-20T08:14:34.575Z,23.54
2016-12-20T08:15:38.018Z,23.56
2016-12-20T08:16:41.483Z,23.48
2016-12-20T08:17:44.937Z,23.56
2016-12-20T08:18:48.391Z,23.48
2016-12-20T08:19:51.841Z,23.5
2016-12-20T08:20:55.289Z,23.47
2016-12-20T08:21:58.744Z,23.51
2016-12-20T08:23:02.228Z,23.55
2016-12-20T08:24:05.692Z,23.54
2016-12-20T08:25:09.150Z,23.5
2016-12-20T08:26:12.621Z,23.54
2016-12-20T08:28:44.670Z,23.55
2016-12-20T08:29:48.116Z,23.47
2016-12-20T08:30:51.568Z,23.46
2016-12-20T08:31:55.013Z,23.43
2016-12-20T08:32:58.476Z,23.56
2016-12-20T08:34:01.927Z,23.58
2016-12-20T08:35:05.375Z,23.51
2016-12-20T08:36:08.833Z,23.73
2016-12-20T08:37:12.282Z,23.66
2016-12-20T08:38:15.740Z,23.65
2016-12-20T08:39:19.198Z,23.58
2016-12-20T08:40:22.644Z,23.44
2016-12-20T08:41:26.101Z,23.41
2016-12-20T08:42:29.549Z,23.4
2016-12-20T08:43:33.006Z,23.46
2016-12-20T08:44:36.458Z,23.36
2016-12-20T08:45:39.925Z,23.36
2016-12-20T08:46:43.372Z,23.51
2016-12-20T08:47:46.840Z,23.5
2016-12-20T08:48:50.294Z,23.5
2016-12-20T08:49:53.750Z,23.54
2016-12-20T08:50:57.180Z,23.62
2016-12-20T08:52:00.672Z,23.62
2016-12-20T08:53:04.125Z,23.58
2016-12-20T08:54:07.586Z,23.63
2016-12-20T08:55:11.035Z,23.61
2016-12-20T08:56:14.486Z,23.74
2016-12-20T08:57:17.928Z,23.77
2016-12-20T08:58:21.383Z,23.77
2016-12-20T08:59:24.858Z,23.77
2016-12-20T09:00:28.305Z,23.73
2016-12-20T09:01:31.750Z,23.84
2016-12-20T09:02:35.201Z,23.81
2016-12-20T09:03:38.666Z,23.84
2016-12-20T09:04:42.112Z,23.87
2016-12-20T09:05:45.561Z,23.81
2016-12-20T09:06:49.001Z,23.84
2016-12-20T09:07:52.456Z,23.81
2016-12-20T09:08:55.919Z,23.77
2016-12-20T09:09:59.364Z,23.74
2016-12-20T09:12:31.455Z,23.81
2016-12-20T09:13:34.900Z,23.77
2016-12-20T09:14:38.352Z,23.84
2016-12-20T09:15:41.792Z,23.83
2016-12-20T09:16:45.264Z,23.87
2016-12-20T09:17:48.713Z,23.8
2016-12-20T09:18:52.156Z,23.83
2016-12-20T09:19:55.609Z,23.92
2016-12-20T09:20:59.066Z,23.81
2016-12-20T09:22:02.528Z,23.78
2016-12-20T09:23:05.985Z,23.96
2016-12-20T09:24:09.444Z,23.92
2016-12-20T09:26:41.409Z,23.92
2016-12-20T09:27:44.863Z,23.95
2016-12-20T09:28:48.326Z,23.99
2016-12-20T09:29:51.779Z,24.01
2016-12-20T09:30:55.225Z,23.96
2016-12-20T09:31:58.682Z,23.86
2016-12-20T09:33:29.984Z,23.77
2016-12-20T09:34:33.412Z,23.8
2016-12-20T09:35:36.896Z,23.77
2016-12-20T09:36:40.340Z,23.8
2016-12-20T09:37:43.775Z,23.73
2016-12-20T09:38:47.234Z,23.74
2016-12-20T09:40:16.972Z,23.76
2016-12-20T09:41:20.428Z,23.76
2016-12-20T09:42:23.889Z,23.81
2016-12-20T09:43:27.335Z,23.77
2016-12-20T09:44:30.801Z,23.77
2016-12-20T09:45:34.259Z,23.74
2016-12-20T09:46:37.716Z,23.84
2016-12-20T09:47:41.182Z,23.81
2016-12-20T09:48:44.638Z,23.81
2016-12-20T09:49:48.098Z,23.81
2016-12-20T09:50:51.541Z,23.77
2016-12-20T09:51:54.998Z,23.76
2016-12-20T09:52:58.455Z,23.77
2016-12-20T09:54:01.904Z,23.68
2016-12-20T09:55:05.374Z,23.74
2016-12-20T09:56:08.833Z,23.73
2016-12-20T09:57:12.905Z,23.68
2016-12-20T09:58:21.213Z,23.66
2016-12-20T09:59:51.145Z,23.61
2016-12-20T10:00:54.599Z,23.71
2016-12-20T10:01:58.058Z,23.63
2016-12-20T10:03:01.514Z,23.73
2016-12-20T10:04:05.450Z,23.74
2016-12-20T10:05:34.892Z,23.65
2016-12-20T10:06:38.339Z,23.81
2016-12-20T10:07:41.813Z,23.91
2016-12-20T10:08:45.263Z,23.84
2016-12-20T10:10:14.972Z,23.88
2016-12-20T10:11:18.424Z,23.87
2016-12-20T10:12:21.883Z,23.92
2016-12-20T10:13:25.340Z,23.93
2016-12-20T10:14:55.852Z,23.93
2016-12-20T10:15:59.305Z,23.98
2016-12-20T10:17:02.760Z,23.99
2016-12-20T10:18:06.201Z,23.98
2016-12-20T10:19:09.656Z,23.96
2016-12-20T10:20:13.114Z,23.95
2016-12-20T10:21:16.557Z,24.02
2016-12-20T10:22:20.034Z,24.02
2016-12-20T10:23:23.486Z,23.96
2016-12-20T10:24:53.719Z,24.01
2016-12-20T10:26:24.286Z,24.08
2016-12-20T10:27:54.223Z,24.13
2016-12-20T10:28:57.666Z,24.11
2016-12-20T10:30:01.114Z,24.08
2016-12-20T10:31:04.561Z,24.06
2016-12-20T10:32:08.008Z,24.13
2016-12-20T10:33:11.469Z,24.16
2016-12-20T10:34:14.924Z,24.16
2016-12-20T10:35:18.375Z,24.01
2016-12-20T10:36:21.826Z,24.01
2016-12-20T10:37:25.282Z,24.1
2016-12-20T10:38:28.738Z,24.14
2016-12-20T10:39:32.693Z,24.14
2016-12-20T10:40:36.126Z,24.18
2016-12-20T10:41:39.584Z,24.16
2016-12-20T10:42:43.038Z,24.13
2016-12-20T10:43:46.483Z,24.16
2016-12-20T10:44:49.936Z,24.17
2016-12-20T10:45:53.397Z,24.17
2016-12-20T10:46:57.738Z,24.17
2016-12-20T10:48:01.209Z,24.1
2016-12-20T10:49:04.661Z,24.17
2016-12-20T10:50:08.109Z,24.13
2016-12-20T10:51:12.527Z,24.14
2016-12-20T10:52:39.896Z,24.3
2016-12-20T10:53:43.338Z,24.18
2016-12-20T10:54:46.777Z,24.24
2016-12-20T10:55:50.224Z,24.13
2016-12-20T10:56:53.677Z,24.26
2016-12-20T10:57:57.138Z,24.2
2016-12-20T10:59:00.613Z,24.23
2016-12-20T11:00:04.073Z,24.16
2016-12-20T11:01:07.535Z,24.14
2016-12-20T11:02:10.983Z,24.16
2016-12-20T11:03:15.087Z,24.14
2016-12-20T11:04:42.656Z,24.13
2016-12-20T11:05:46.932Z,24.05
2016-12-20T11:07:15.124Z,24.13
2016-12-20T11:08:42.546Z,24.11
2016-12-20T11:09:45.999Z,24.11
2016-12-20T11:10:49.463Z,24.11
2016-12-20T11:11:52.907Z,24.08
2016-12-20T11:12:56.383Z,24.06
2016-12-20T11:13:59.842Z,24.14
2016-12-20T11:15:03.301Z,24.13
2016-12-20T11:16:06.758Z,24.14
2016-12-20T11:17:10.216Z,24.13
2016-12-20T11:18:13.670Z,24.14
2016-12-20T11:19:17.118Z,24.08
2016-12-20T11:20:20.577Z,24.2
2016-12-20T11:21:24.084Z,24.16
2016-12-20T11:22:27.540Z,24.14
2016-12-20T11:23:30.992Z,24.08
2016-12-20T11:24:34.476Z,24.1
2016-12-20T11:25:37.931Z,24.11
2016-12-20T11:26:41.367Z,24.06
2016-12-20T11:27:44.821Z,24.13
2016-12-20T11:28:48.275Z,24.05
2016-12-20T11:29:51.722Z,24.11
2016-12-20T11:30:55.179Z,24.11
2016-12-20T11:31:58.652Z,24.1
2016-12-20T11:33:02.110Z,24.17
2016-12-20T11:34:05.563Z,24.6
2016-12-20T11:36:31.563Z,23.95
2016-12-20T11:37:35.007Z,24.02
2016-12-20T11:39:05.509Z,23.95
2016-12-20T11:40:09.885Z,23.92
2016-12-20T11:41:13.355Z,23.99
2016-12-20T11:42:16.822Z,23.99
2016-12-20T11:43:20.267Z,23.98
2016-12-20T11:44:25.472Z,23.98
2016-12-20T11:45:28.909Z,23.98
2016-12-20T11:46:32.370Z,23.98
2016-12-20T11:47:35.821Z,23.99
2016-12-20T11:48:39.263Z,23.87
2016-12-20T11:49:42.719Z,23.92
2016-12-20T11:50:46.201Z,23.83
2016-12-20T11:51:49.641Z,23.84
2016-12-20T11:52:53.085Z,23.81
2016-12-20T11:53:56.524Z,23.91
2016-12-20T11:54:59.965Z,23.81
2016-12-20T11:56:03.415Z,23.95
2016-12-20T11:57:06.865Z,23.91
2016-12-20T11:58:10.304Z,23.91
2016-12-20T11:59:13.753Z,23.95
2016-12-20T12:00:17.208Z,23.95
2016-12-20T12:01:20.653Z,23.95
2016-12-20T12:02:24.112Z,24.01
2016-12-20T12:03:27.559Z,24.2
2016-12-20T12:04:31.000Z,24.11
2016-12-20T12:05:34.444Z,24.16
2016-12-20T12:06:37.926Z,24.24
2016-12-20T12:07:41.377Z,24.26
2016-12-20T12:08:44.865Z,24.39
2016-12-20T12:09:48.302Z,24.4
2016-12-20T12:10:51.761Z,24.47
2016-12-20T12:11:55.223Z,24.57
2016-12-20T12:12:58.684Z,24.53
2016-12-20T12:14:02.153Z,24.68
2016-12-20T12:15:05.589Z,24.74
2016-12-20T12:16:09.046Z,24.74
2016-12-20T12:17:12.496Z,24.85
2016-12-20T12:18:15.914Z,24.76
2016-12-20T12:19:19.336Z,24.91
2016-12-20T12:20:22.783Z,24.92
2016-12-20T12:21:26.228Z,25.01
2016-12-20T12:22:29.676Z,25.07
2016-12-20T12:23:33.116Z,25.04
2016-12-20T12:24:36.573Z,25.03
2016-12-20T12:25:40.024Z,25.07
2016-12-20T12:26:43.479Z,25.14
2016-12-20T12:27:46.927Z,25.13
2016-12-20T12:28:50.377Z,25.17
2016-12-20T12:29:53.824Z,25.18
2016-12-20T12:30:57.268Z,25.16
2016-12-20T12:32:00.713Z,25.21
2016-12-20T12:33:04.164Z,25.13
2016-12-20T12:34:07.862Z,25.1
2016-12-20T12:35:11.337Z,25.16
2016-12-20T12:36:14.796Z,25.11
2016-12-20T12:37:18.232Z,25.11
2016-12-20T12:38:21.684Z,24.99
2016-12-20T12:39:25.129Z,25.16
2016-12-20T12:40:28.579Z,25.17
2016-12-20T12:41:32.050Z,25.14
2016-12-20T12:42:35.506Z,25.08
2016-12-20T12:43:38.942Z,25.08
2016-12-20T12:44:42.399Z,25.16
2016-12-20T12:45:45.853Z,25.13
2016-12-20T12:46:49.310Z,25.18
2016-12-20T12:47:52.775Z,25.1
2016-12-20T12:48:56.221Z,25.08
2016-12-20T12:49:59.677Z,25.18
2016-12-20T12:51:03.135Z,25.22
2016-12-20T12:52:06.590Z,25.25
2016-12-20T12:53:10.053Z,25.08
2016-12-20T12:54:13.506Z,24.92
2016-12-20T12:55:16.938Z,24.81
2016-12-20T12:56:47.258Z,24.76
2016-12-20T12:57:50.709Z,24.73
2016-12-20T12:58:54.176Z,24.6
2016-12-20T12:59:57.677Z,24.57
2016-12-20T13:01:01.124Z,24.57
2016-12-20T13:02:04.591Z,24.57
2016-12-20T13:03:34.350Z,24.58
2016-12-20T13:04:37.793Z,24.53
2016-12-20T13:05:41.236Z,24.61
2016-12-20T13:06:44.699Z,24.57
2016-12-20T13:07:48.164Z,24.63
2016-12-20T13:08:51.599Z,24.63
2016-12-20T13:09:55.078Z,24.73
2016-12-20T13:10:58.528Z,24.68
2016-12-20T13:12:01.999Z,24.74
2016-12-20T13:13:05.448Z,24.73
2016-12-20T13:14:08.898Z,24.77
2016-12-20T13:15:12.345Z,24.76
2016-12-20T13:16:15.806Z,24.77
2016-12-20T13:17:19.276Z,24.76
2016-12-20T13:18:22.718Z,24.84
2016-12-20T13:19:26.175Z,24.86
2016-12-20T13:20:29.630Z,24.84
2016-12-20T13:21:33.078Z,24.89
2016-12-20T13:22:36.543Z,24.89
2016-12-20T13:23:39.994Z,24.92
2016-12-20T13:24:43.448Z,24.92
2016-12-20T13:25:46.897Z,24.91
2016-12-20T13:26:50.365Z,24.99
2016-12-20T13:27:53.817Z,25.01
2016-12-20T13:28:57.265Z,25.04
2016-12-20T13:30:00.719Z,25.08
2016-12-20T13:31:04.222Z,25.03
2016-12-20T13:32:07.671Z,25.03
2016-12-20T13:33:11.114Z,25.16
2016-12-20T13:34:14.586Z,25.08
2016-12-20T13:35:18.046Z,25.16
2016-12-20T13:36:21.504Z,25.08
2016-12-20T13:37:24.933Z,25.06
2016-12-20T13:38:28.379Z,25.14
2016-12-20T13:39:31.833Z,25.16
2016-12-20T13:41:02.105Z,25.18
2016-12-20T13:42:05.547Z,25.22
2016-12-20T13:43:35.274Z,25.26
2016-12-20T13:44:38.725Z,25.21
2016-12-20T13:45:42.188Z,25.21
2016-12-20T13:46:45.635Z,25.08
2016-12-20T13:47:49.089Z,25.16
2016-12-20T13:48:52.539Z,25.21
2016-12-20T13:49:55.991Z,25.26
2016-12-20T13:50:59.452Z,25.25
2016-12-20T13:52:02.903Z,25.25
2016-12-20T13:53:06.358Z,25.28
2016-12-20T13:54:09.814Z,25.21
2016-12-20T13:55:13.292Z,25.22
2016-12-20T13:56:16.746Z,25.21
2016-12-20T13:57:20.203Z,25.26
2016-12-20T13:58:23.670Z,25.29
2016-12-20T13:59:27.623Z,25.21
2016-12-20T14:00:31.090Z,25.23
2016-12-20T14:01:34.541Z,25.22
2016-12-20T14:03:04.254Z,25.23
2016-12-20T14:04:07.713Z,25.29
2016-12-20T14:05:11.996Z,25.32
2016-12-20T14:06:15.447Z,25.35
2016-12-20T14:07:45.095Z,25.28
2016-12-20T14:08:48.546Z,25.28
2016-12-20T14:09:51.991Z,25.17
2016-12-20T14:10:55.447Z,25.18
2016-12-20T14:11:58.902Z,25.23
2016-12-20T14:13:02.353Z,25.18
2016-12-20T14:14:05.796Z,25.23
2016-12-20T14:15:09.236Z,25.21
2016-12-20T14:16:12.691Z,25.18